Time;durP1;ratioP1;P1;durP2;ratioP2;P2;SDS_P1;SDS_P2;PMS_P1;PMS_P2;Temp;Humidity;BMP_temperature;BMP_pressure;BME280_temperature;BME280_humidity;BME280_pressure;Samples;Min_cycle;Max_cycle;Signal;HPM_P1;HPM_P2
2022/12/31 00:03:08;;;;;;;16.20;6.60;;;;;;;4.47;81.81;98994.33;102342;1299;59298;-66
2022/12/31 00:05:57;;;;;;;20.20;6.90;;;;;;;4.45;81.87;98991.64;102479;1299;60098;-66
2022/12/31 00:08:47;;;;;;;14.10;5.60;;;;;;;4.43;82.01;99003.69;101902;1299;1003352;-66
2022/12/31 00:11:37;;;;;;;15.80;6.10;;;;;;;4.42;82.18;99000.77;102416;1291;68928;-67
2022/12/31 00:14:25;;;;;;;15.50;6.20;;;;;;;4.43;81.88;98988.23;102174;1297;71612;-67
2022/12/31 00:17:13;;;;;;;16.10;6.80;;;;;;;4.45;81.86;98985.35;102488;1297;59391;-66
2022/12/31 00:20:04;;;;;;;13.10;6.10;;;;;;;4.45;81.93;98983.02;102428;1295;59663;-66
2022/12/31 00:22:52;;;;;;;15.60;6.50;;;;;;;4.45;82.14;98974.05;102339;1297;73718;-65
2022/12/31 00:25:41;;;;;;;14.00;5.80;;;;;;;4.46;82.10;98978.42;102343;1299;68881;-66
2022/12/31 00:28:29;;;;;;;15.10;5.20;;;;;;;4.45;82.13;98978.10;102480;1295;73394;-66
2022/12/31 00:31:27;;;;;;;16.70;6.00;;;;;;;4.44;82.44;98989.06;102161;1299;59359;-65
2022/12/31 00:34:15;;;;;;;17.00;6.70;;;;;;;4.45;82.62;98985.97;102389;1297;61353;-66
2022/12/31 00:37:04;;;;;;;15.30;6.60;;;;;;;4.46;82.51;98981.38;102394;1298;72180;-66
2022/12/31 00:39:52;;;;;;;15.60;6.50;;;;;;;4.45;82.57;98985.13;102147;1294;67151;-65
2022/12/31 00:42:40;;;;;;;13.50;5.80;;;;;;;4.47;82.59;98994.52;102369;1299;73152;-65
2022/12/31 00:45:29;;;;;;;15.50;5.50;;;;;;;4.47;82.36;99000.43;102404;1282;59391;-66
2022/12/31 00:48:18;;;;;;;13.80;5.80;;;;;;;4.49;82.37;99005.25;100207;1291;1015992;-66
2022/12/31 00:51:16;;;;;;;17.50;6.00;;;;;;;4.51;82.38;99013.02;102448;1299;73554;-66
2022/12/31 00:54:04;;;;;;;16.30;9.50;;;;;;;4.53;82.56;99008.16;102549;1297;69177;-66
2022/12/31 00:56:53;;;;;;;16.50;7.00;;;;;;;4.52;82.59;98995.70;102540;1294;72620;-66
2022/12/31 00:59:42;;;;;;;15.70;7.10;;;;;;;4.51;82.55;99005.30;102521;1299;59391;-66
2022/12/31 01:02:31;;;;;;;16.30;7.40;;;;;;;4.51;82.40;99003.68;102376;1299;61379;-66
2022/12/31 01:05:20;;;;;;;13.60;6.30;;;;;;;4.51;82.60;98995.48;102355;1299;73276;-66
2022/12/31 01:08:08;;;;;;;17.50;6.30;;;;;;;4.51;82.55;98987.34;102457;1291;66832;-66
2022/12/31 01:11:17;;;;;;;15.10;5.80;;;;;;;4.51;82.68;98984.37;102632;1295;73393;-66
2022/12/31 01:14:13;;;;;;;16.40;7.10;;;;;;;4.51;82.46;98981.59;102411;1299;59264;-67
2022/12/31 01:17:02;;;;;;;14.10;6.10;;;;;;;4.51;82.34;98975.92;102343;1299;61136;-67
2022/12/31 01:19:51;;;;;;;16.30;7.10;;;;;;;4.54;82.26;98970.48;102309;1291;71084;-70
2022/12/31 01:22:39;;;;;;;15.10;5.60;;;;;;;4.56;81.94;98976.65;101893;1298;67855;-67
2022/12/31 01:25:28;;;;;;;16.90;6.00;;;;;;;4.57;81.99;98981.98;102438;1299;73976;-68
2022/12/31 01:28:16;;;;;;;15.70;6.70;;;;;;;4.59;81.80;98982.73;102227;1298;59376;-66
2022/12/31 01:31:09;;;;;;;18.70;6.40;;;;;;;4.59;81.83;98976.58;102363;1299;60171;-66
2022/12/31 01:33:57;;;;;;;14.60;6.30;;;;;;;4.60;81.79;98980.72;102344;1299;72720;-65
2022/12/31 01:36:45;;;;;;;14.50;6.20;;;;;;;4.62;82.02;98968.34;102469;1294;67180;-67
2022/12/31 01:39:34;;;;;;;14.00;4.70;;;;;;;4.64;81.94;98954.49;102455;1298;73765;-66
2022/12/31 01:42:22;;;;;;;13.60;5.80;;;;;;;4.63;81.86;98949.80;102163;1298;59391;-66
2022/12/31 01:45:13;;;;;;;17.60;6.20;;;;;;;4.64;82.10;98943.63;102234;1291;60159;-66
2022/12/31 01:48:02;;;;;;;16.90;7.20;;;;;;;4.66;82.06;98942.92;102426;1294;73002;-67
2022/12/31 01:50:52;;;;;;;16.40;6.40;;;;;;;4.67;82.20;98947.94;102411;1299;67942;-66
2022/12/31 01:53:42;;;;;;;19.80;6.50;;;;;;;4.69;82.12;98947.28;102278;1295;74236;-66
2022/12/31 01:56:30;;;;;;;16.30;6.70;;;;;;;4.69;81.90;98935.34;102325;1298;59455;-65
2022/12/31 01:59:20;;;;;;;16.60;6.40;;;;;;;4.68;82.10;98949.28;100291;1297;1003211;-65
2022/12/31 02:02:09;;;;;;;12.70;5.60;;;;;;;4.68;82.29;98955.08;102376;1298;71314;-66
2022/12/31 02:05:02;;;;;;;13.10;5.80;;;;;;;4.68;82.20;98956.81;102388;1299;68756;-67
2022/12/31 02:07:52;;;;;;;16.00;6.30;;;;;;;4.68;82.20;98955.61;102357;1299;73667;-65
2022/12/31 02:10:41;;;;;;;14.20;6.60;;;;;;;4.69;82.63;98958.52;102451;1294;59374;-64
2022/12/31 02:13:29;;;;;;;18.30;6.60;;;;;;;4.70;82.75;98955.98;102408;1299;60317;-64
2022/12/31 02:16:39;;;;;;;13.10;5.50;;;;;;;4.68;82.87;98948.72;102185;1298;71520;-65
2022/12/31 02:19:55;;;;;;;16.90;6.10;;;;;;;4.68;82.61;98942.44;102483;1299;67863;-65
2022/12/31 02:23:31;;;;;;;13.90;5.40;;;;;;;4.66;82.98;98932.74;100448;1291;1016350;-64
2022/12/31 02:26:56;;;;;;;15.50;5.50;;;;;;;4.64;82.98;98930.38;102260;1299;59442;-64
2022/12/31 02:30:11;;;;;;;15.40;5.80;;;;;;;4.64;83.28;98923.23;102425;1298;60044;-65
2022/12/31 02:33:31;;;;;;;17.90;6.10;;;;;;;4.63;83.61;98917.13;102373;1295;70174;-64
2022/12/31 02:36:25;;;;;;;14.90;6.00;;;;;;;4.63;83.81;98924.14;102503;1275;68119;-65
2022/12/31 02:39:14;;;;;;;12.20;5.20;;;;;;;4.63;84.23;98929.09;102228;1297;72629;-65
2022/12/31 02:42:03;;;;;;;15.10;5.60;;;;;;;4.64;84.26;98930.38;102325;1291;59260;-66
2022/12/31 02:44:51;;;;;;;14.60;5.80;;;;;;;4.67;84.45;98932.48;102434;1298;60642;-64
2022/12/31 02:48:09;;;;;;;13.70;5.90;;;;;;;4.72;84.68;98926.52;102373;1299;73332;-65
2022/12/31 02:51:31;;;;;;;13.80;5.20;;;;;;;4.76;84.81;98936.02;102361;1298;67643;-65
2022/12/31 02:54:57;;;;;;;13.20;5.80;;;;;;;4.80;85.29;98934.86;102303;1297;72462;-66
2022/12/31 02:58:04;;;;;;;13.10;5.60;;;;;;;4.87;85.28;98942.84;102315;1299;59982;-67
2022/12/31 03:07:20;;;;;;;14.50;5.30;;;;;;;4.98;86.36;98928.33;102320;1297;66640;-66
2022/12/31 03:10:09;;;;;;;15.00;4.80;;;;;;;4.99;86.68;98926.83;102389;1294;72715;-66
2022/12/31 03:12:57;;;;;;;14.00;5.40;;;;;;;5.01;87.47;98933.05;102370;1291;59647;-66
2022/12/31 03:15:46;;;;;;;13.60;5.90;;;;;;;5.05;87.90;98934.51;101751;1297;1003049;-65
2022/12/31 03:27:59;;;;;;;11.00;5.20;;;;;;;5.20;89.96;98924.66;102396;1289;59691;-66
2022/12/31 03:30:55;;;;;;;11.50;4.60;;;;;;;5.20;90.90;98925.69;102380;1292;60600;-66
2022/12/31 03:33:43;;;;;;;11.70;5.40;;;;;;;5.21;91.23;98933.20;102404;1298;73905;-66
2022/12/31 03:36:32;;;;;;;12.00;4.80;;;;;;;5.21;91.85;98941.78;102345;1297;66681;-67
2022/12/31 03:39:20;;;;;;;13.30;5.10;;;;;;;5.21;92.65;98950.07;102185;1300;73127;-67
2022/12/31 03:42:08;;;;;;;38.40;6.00;;;;;;;5.20;93.28;98955.90;102373;1292;60307;-66
2022/12/31 03:44:57;;;;;;;9.90;4.70;;;;;;;5.20;93.55;98956.27;102281;1299;60064;-64
2022/12/31 03:47:45;;;;;;;12.20;5.20;;;;;;;5.20;93.93;98961.59;102483;1297;72137;-65
2022/12/31 03:50:34;;;;;;;11.70;5.50;;;;;;;5.20;94.31;98966.11;102598;1291;67616;-64
2022/12/31 03:53:22;;;;;;;13.70;5.10;;;;;;;5.20;95.32;98972.98;101695;1291;1003694;-66
2022/12/31 03:56:11;;;;;;;12.80;5.50;;;;;;;5.17;96.04;98978.11;102357;1299;60795;-65
2022/12/31 03:58:59;;;;;;;11.50;5.40;;;;;;;5.15;97.19;98979.36;102240;1299;59601;-65
2022/12/31 04:01:47;;;;;;;13.80;5.60;;;;;;;5.09;98.80;98986.95;102318;1294;72780;-64
2022/12/31 04:04:36;;;;;;;12.90;4.90;;;;;;;5.04;99.63;98983.63;102335;1299;68846;-66
2022/12/31 04:07:24;;;;;;;12.10;4.40;;;;;;;5.01;100.00;98976.79;102395;1294;73185;-66
2022/12/31 04:10:15;;;;;;;11.20;6.40;;;;;;;5.00;100.00;98980.19;102257;1299;59747;-65
2022/12/31 04:13:03;;;;;;;11.80;5.00;;;;;;;5.01;100.00;98971.89;102454;1299;60367;-66
2022/12/31 04:15:51;;;;;;;13.50;5.00;;;;;;;5.00;100.00;98966.71;102617;1299;74511;-65
2022/12/31 04:18:40;;;;;;;13.20;6.40;;;;;;;4.99;100.00;98972.54;102421;1298;68335;-65
2022/12/31 04:21:28;;;;;;;10.70;5.30;;;;;;;4.98;100.00;98973.33;102268;1299;73702;-64
2022/12/31 04:24:22;;;;;;;11.20;4.60;;;;;;;4.98;100.00;98973.37;102209;1292;59647;-64
2022/12/31 04:27:12;;;;;;;11.20;5.00;;;;;;;4.98;100.00;98977.40;102362;1294;60408;-66
2022/12/31 04:30:00;;;;;;;13.20;5.90;;;;;;;4.99;100.00;98968.33;102338;1295;73326;-66
2022/12/31 04:32:48;;;;;;;14.40;5.60;;;;;;;5.02;100.00;98952.64;102376;1294;67768;-65
2022/12/31 04:35:37;;;;;;;12.30;5.60;;;;;;;5.04;100.00;98954.12;102290;1291;72920;-64
2022/12/31 04:38:25;;;;;;;10.20;4.80;;;;;;;5.07;100.00;98959.30;102305;1291;60069;-64
2022/12/31 04:41:17;;;;;;;13.00;5.50;;;;;;;5.11;100.00;98973.81;102347;1299;61363;-63
2022/12/31 04:44:05;;;;;;;12.40;5.90;;;;;;;5.15;100.00;98970.01;102190;1294;72783;-64
2022/12/31 04:46:54;;;;;;;11.30;5.50;;;;;;;5.19;100.00;98967.62;102365;1299;68624;-64
2022/12/31 04:49:42;;;;;;;11.60;5.60;;;;;;;5.23;100.00;98966.97;102590;1295;73518;-65
2022/12/31 04:52:30;;;;;;;11.60;4.90;;;;;;;5.27;100.00;98978.12;102400;1299;60589;-65
2022/12/31 04:55:27;;;;;;;12.00;5.30;;;;;;;5.30;100.00;98995.30;102347;1299;61343;-65
2022/12/31 04:58:17;;;;;;;12.60;5.90;;;;;;;5.35;100.00;98992.17;102429;1297;73360;-69
2022/12/31 05:01:06;;;;;;;11.50;5.70;;;;;;;5.38;100.00;98999.63;102532;1295;68634;-66
2022/12/31 05:03:54;;;;;;;12.00;5.40;;;;;;;5.42;100.00;99000.19;102517;1295;72645;-64
2022/12/31 05:06:43;;;;;;;13.90;5.90;;;;;;;5.46;100.00;99000.28;102315;1295;59724;-65
2022/12/31 05:09:31;;;;;;;12.80;5.90;;;;;;;5.49;100.00;99001.12;102181;1299;60860;-64
2022/12/31 05:12:20;;;;;;;11.50;6.10;;;;;;;5.53;100.00;99007.67;102574;1286;73926;-66
2022/12/31 05:15:08;;;;;;;10.60;5.80;;;;;;;5.56;100.00;98999.05;102200;1304;68808;-66
2022/12/31 05:17:57;;;;;;;13.30;6.30;;;;;;;5.58;100.00;98998.19;102406;1299;72702;-68
2022/12/31 05:20:49;;;;;;;12.10;5.70;;;;;;;5.61;100.00;98996.94;102576;1291;61144;-67
2022/12/31 05:23:37;;;;;;;11.10;5.80;;;;;;;5.63;100.00;98992.88;102556;1297;60594;-66
2022/12/31 05:26:26;;;;;;;13.40;6.50;;;;;;;5.66;100.00;98998.88;102221;1294;72121;-67
2022/12/31 05:29:15;;;;;;;12.60;5.90;;;;;;;5.64;100.00;98988.23;102363;1296;68959;-66
2022/12/31 05:32:03;;;;;;;13.80;6.30;;;;;;;5.68;100.00;98989.15;102179;1299;73155;-65
2022/12/31 05:34:52;;;;;;;14.50;6.80;;;;;;;5.69;100.00;98976.80;102621;1297;60454;-66
2022/12/31 05:37:40;;;;;;;13.40;6.90;;;;;;;5.68;100.00;98989.52;102390;1299;60639;-66
2022/12/31 05:40:29;;;;;;;12.50;6.20;;;;;;;5.69;100.00;98987.69;102195;1295;73010;-66
2022/12/31 05:43:18;;;;;;;12.60;6.40;;;;;;;5.69;100.00;98987.52;102377;1298;68916;-65
2022/12/31 05:46:06;;;;;;;14.10;6.90;;;;;;;5.71;100.00;98989.14;102424;1291;72099;-67
2022/12/31 05:48:54;;;;;;;16.50;7.10;;;;;;;5.70;100.00;98991.12;102301;1299;59653;-67
2022/12/31 05:51:43;;;;;;;13.50;6.90;;;;;;;5.71;100.00;98987.56;102635;1294;60262;-66
2022/12/31 05:54:35;;;;;;;16.80;6.90;;;;;;;5.71;100.00;98983.34;102492;1299;73063;-66
2022/12/31 05:57:23;;;;;;;15.90;7.20;;;;;;;5.74;100.00;98988.39;102358;1299;67550;-65
2022/12/31 06:00:13;;;;;;;12.00;6.20;;;;;;;5.76;100.00;98993.63;102358;1294;72961;-66
2022/12/31 06:03:00;;;;;;;13.90;6.70;;;;;;;5.78;100.00;98988.02;102394;1298;61065;-65
2022/12/31 06:05:50;;;;;;;11.70;5.70;;;;;;;5.82;100.00;98987.29;102390;1295;60086;-65
2022/12/31 06:08:39;;;;;;;14.30;6.80;;;;;;;5.83;100.00;98990.87;102364;1295;74230;-66
2022/12/31 06:11:29;;;;;;;11.80;6.30;;;;;;;5.86;100.00;98998.08;102371;1291;68894;-66
2022/12/31 06:14:17;;;;;;;12.60;6.30;;;;;;;5.87;100.00;98995.35;102304;1295;71978;-66
2022/12/31 06:17:06;;;;;;;13.00;6.60;;;;;;;5.89;100.00;98988.15;102544;1288;60661;-67
2022/12/31 06:19:54;;;;;;;13.60;6.30;;;;;;;5.90;100.00;98992.96;102475;1293;60272;-70
2022/12/31 06:22:44;;;;;;;12.10;6.40;;;;;;;5.91;100.00;98989.94;102503;1299;74001;-66
2022/12/31 06:25:35;;;;;;;13.30;7.20;;;;;;;5.90;100.00;98993.52;102423;1293;68574;-67
2022/12/31 06:28:24;;;;;;;12.00;6.60;;;;;;;5.92;100.00;98999.66;102067;1296;72595;-68
2022/12/31 06:31:14;;;;;;;13.30;6.90;;;;;;;5.96;100.00;99002.96;102251;1299;60060;-67
2022/12/31 06:34:03;;;;;;;15.20;7.80;;;;;;;5.98;100.00;99010.02;102283;1295;60096;-66
2022/12/31 06:36:51;;;;;;;13.30;6.00;;;;;;;6.01;100.00;99009.07;102125;1299;73716;-69
2022/12/31 06:39:40;;;;;;;14.40;7.10;;;;;;;6.03;100.00;99015.65;102327;1295;67549;-67
2022/12/31 06:42:29;;;;;;;12.20;6.30;;;;;;;6.07;100.00;99020.81;102297;1299;73802;-69
2022/12/31 06:45:19;;;;;;;12.20;6.50;;;;;;;6.07;100.00;99024.65;102374;1295;60510;-66
2022/12/31 06:48:07;;;;;;;12.90;7.20;;;;;;;6.08;100.00;99026.33;102465;1302;59624;-66
2022/12/31 06:50:56;;;;;;;14.30;6.20;;;;;;;6.10;100.00;99028.79;102055;1294;72112;-67
2022/12/31 06:53:48;;;;;;;13.40;6.80;;;;;;;6.12;100.00;99034.49;102317;1294;68811;-65
2022/12/31 06:56:37;;;;;;;12.90;6.30;;;;;;;6.14;100.00;99028.91;102324;1298;72751;-67
2022/12/31 06:59:28;;;;;;;13.30;6.30;;;;;;;6.18;100.00;99028.47;102252;1299;59761;-66
2022/12/31 07:02:41;;;;;;;11.90;5.90;;;;;;;6.21;100.00;99025.77;102458;1298;61359;-67
2022/12/31 07:05:46;;;;;;;15.20;6.70;;;;;;;6.25;100.00;99030.56;102306;1298;72467;-65
2022/12/31 07:09:12;;;;;;;12.10;7.10;;;;;;;6.28;100.00;99031.51;102106;1297;69054;-68
2022/12/31 07:12:26;;;;;;;11.70;5.80;;;;;;;6.33;100.00;99041.41;102316;1299;72716;-68
2022/12/31 07:15:45;;;;;;;12.70;6.00;;;;;;;6.37;100.00;99057.33;102314;1298;59655;-67
2022/12/31 07:19:08;;;;;;;12.00;6.50;;;;;;;6.41;100.00;99052.77;102234;1294;60068;-66
2022/12/31 07:21:58;;;;;;;13.60;6.20;;;;;;;6.47;100.00;99057.07;102390;1298;74038;-66
2022/12/31 07:24:46;;;;;;;12.80;6.60;;;;;;;6.50;100.00;99051.89;102338;1295;68300;-66
2022/12/31 07:28:15;;;;;;;11.70;5.60;;;;;;;6.53;100.00;99049.73;102247;1299;73583;-66
2022/12/31 07:31:50;;;;;;;13.50;6.50;;;;;;;6.58;100.00;99042.98;102483;1295;59677;-67
2022/12/31 07:35:26;;;;;;;12.00;5.70;;;;;;;6.61;100.00;99048.54;102490;1291;60815;-67
2022/12/31 07:39:03;;;;;;;12.70;5.90;;;;;;;6.67;100.00;99060.10;101911;1305;73577;-65
2022/12/31 07:42:10;;;;;;;12.00;5.90;;;;;;;6.73;100.00;99067.77;101863;1300;67876;-68
2022/12/31 07:45:23;;;;;;;10.70;5.90;;;;;;;6.77;100.00;99064.99;101922;1300;72674;-65
2022/12/31 07:48:26;;;;;;;12.50;6.00;;;;;;;6.83;100.00;99054.13;101818;1300;59856;-68
2022/12/31 07:51:15;;;;;;;14.90;6.60;;;;;;;6.88;100.00;99063.05;101918;1302;59610;-66
2022/12/31 07:54:04;;;;;;;12.50;6.20;;;;;;;6.94;100.00;99060.86;101637;1303;72787;-64
2022/12/31 07:57:01;;;;;;;12.00;5.50;;;;;;;6.98;100.00;99055.41;102003;1302;68856;-64
2022/12/31 08:00:05;;;;;;;11.40;5.40;;;;;;;7.04;100.00;99057.27;102088;1300;73866;-66
2022/12/31 08:03:29;;;;;;;11.50;5.30;;;;;;;7.09;100.00;99064.57;101653;1302;59747;-67
2022/12/31 08:06:57;;;;;;;11.20;5.60;;;;;;;7.13;100.00;99066.00;101969;1301;61204;-67
2022/12/31 08:10:01;;;;;;;12.20;5.50;;;;;;;7.17;100.00;99063.77;101946;1301;74193;-66
2022/12/31 08:12:55;;;;;;;12.60;5.70;;;;;;;7.20;100.00;99062.84;101811;1303;67792;-67
2022/12/31 08:15:44;;;;;;;11.70;6.00;;;;;;;7.23;100.00;99065.63;102266;1293;71537;-66
2022/12/31 08:18:32;;;;;;;13.60;5.60;;;;;;;7.25;100.00;99068.44;102120;1295;59684;-65
2022/12/31 08:21:47;;;;;;;10.90;4.90;;;;;;;7.26;100.00;99077.67;102359;1299;61366;-67
2022/12/31 08:24:48;;;;;;;11.30;5.60;;;;;;;7.29;100.00;99080.86;102341;1299;73030;-66
2022/12/31 08:28:05;;;;;;;13.80;5.80;;;;;;;7.30;100.00;99079.30;102294;1298;67888;-67
2022/12/31 08:31:04;;;;;;;14.20;5.80;;;;;;;7.32;100.00;99081.83;102278;1298;73505;-67
2022/12/31 08:34:20;;;;;;;10.50;4.90;;;;;;;7.33;100.00;99081.73;102340;1299;59695;-70
2022/12/31 08:37:25;;;;;;;11.20;5.00;;;;;;;7.31;100.00;99088.25;102288;1299;60327;-69
2022/12/31 08:40:51;;;;;;;9.90;5.00;;;;;;;7.30;100.00;99095.54;102101;1297;73007;-68
2022/12/31 08:43:58;;;;;;;11.90;6.10;;;;;;;7.29;100.00;99087.36;102419;1295;68749;-67
2022/12/31 08:47:01;;;;;;;11.20;6.10;;;;;;;7.29;100.00;99089.85;102653;1298;71048;-67
2022/12/31 08:49:50;;;;;;;9.50;5.40;;;;;;;7.31;100.00;99084.05;102116;1299;59742;-66
2022/12/31 08:52:39;;;;;;;10.30;5.60;;;;;;;7.33;100.00;99083.02;102448;1294;61171;-67
2022/12/31 08:55:28;;;;;;;11.20;5.20;;;;;;;7.33;100.00;99082.44;102428;1299;73619;-67
2022/12/31 08:58:52;;;;;;;12.60;5.50;;;;;;;7.35;100.00;99081.80;102519;1299;67866;-66
2022/12/31 09:01:53;;;;;;;10.80;5.70;;;;;;;7.37;100.00;99085.30;102385;1299;73648;-66
2022/12/31 09:04:56;;;;;;;10.10;5.20;;;;;;;7.38;100.00;99080.49;102115;1299;59649;-66
2022/12/31 09:08:07;;;;;;;11.90;5.70;;;;;;;7.39;100.00;99076.90;102141;1297;59661;-66
2022/12/31 09:11:27;;;;;;;11.90;5.60;;;;;;;7.42;100.00;99074.90;102559;1291;72137;-66
2022/12/31 09:14:42;;;;;;;9.30;5.30;;;;;;;7.45;100.00;99075.19;102599;1290;68229;-64
2022/12/31 09:17:44;;;;;;;10.00;5.20;;;;;;;7.47;100.00;99086.42;102342;1299;73606;-66
2022/12/31 09:20:33;;;;;;;11.40;5.30;;;;;;;7.50;100.00;99079.14;102205;1289;59652;-67
2022/12/31 09:23:31;;;;;;;10.10;5.40;;;;;;;7.54;100.00;99071.48;102320;1289;59833;-67
2022/12/31 09:27:00;;;;;;;11.50;5.40;;;;;;;7.58;100.00;99067.80;102387;1289;71422;-67
2022/12/31 09:30:06;;;;;;;10.00;5.40;;;;;;;7.65;100.00;99064.69;102362;1290;68794;-66
2022/12/31 09:33:34;;;;;;;10.10;4.90;;;;;;;7.70;100.00;99066.13;102578;1291;73647;-67
2022/12/31 09:36:31;;;;;;;10.10;5.00;;;;;;;7.71;100.00;99048.56;102131;1295;59650;-65
2022/12/31 09:39:42;;;;;;;10.10;4.90;;;;;;;7.70;100.00;99043.10;102614;1299;60336;-68
2022/12/31 09:43:17;;;;;;;9.60;4.70;;;;;;;7.76;100.00;99042.48;102320;1291;74031;-68
2022/12/31 09:46:35;;;;;;;10.20;5.00;;;;;;;7.81;100.00;99046.81;102294;1291;67841;-66
2022/12/31 09:50:04;;;;;;;9.10;4.30;;;;;;;7.83;100.00;99044.02;102357;1294;73856;-68
2022/12/31 09:53:29;;;;;;;9.30;4.60;;;;;;;7.84;100.00;99030.11;102400;1292;59706;-67
2022/12/31 09:56:35;;;;;;;8.90;4.40;;;;;;;7.88;100.00;99030.70;102177;1289;60418;-69
2022/12/31 09:59:47;;;;;;;9.80;5.00;;;;;;;7.91;100.00;99020.06;102417;1295;72874;-68
2022/12/31 10:03:28;;;;;;;12.00;4.90;;;;;;;7.94;100.00;99019.78;102396;1297;67630;-65
2022/12/31 10:06:31;;;;;;;10.60;4.90;;;;;;;7.94;100.00;99009.32;102234;1297;71682;-65
2022/12/31 10:09:47;;;;;;;9.40;4.30;;;;;;;7.90;100.00;99003.36;102406;1299;60082;-66
2022/12/31 10:13:10;;;;;;;11.30;5.70;;;;;;;7.86;100.00;98996.30;102427;1297;60108;-69
2022/12/31 10:16:35;;;;;;;11.50;5.90;;;;;;;7.83;100.00;98988.34;102563;1298;73350;-67
2022/12/31 10:19:57;;;;;;;11.90;5.60;;;;;;;7.80;100.00;98988.77;102256;1297;67609;-70
2022/12/31 10:23:05;;;;;;;13.10;6.20;;;;;;;7.79;100.00;98987.27;102400;1299;73630;-66
2022/12/31 10:26:38;;;;;;;10.90;5.60;;;;;;;7.82;100.00;98988.83;102467;1289;60669;-66
2022/12/31 10:29:40;;;;;;;13.70;6.90;;;;;;;7.86;100.00;98998.92;101859;1304;61374;-65
2022/12/31 10:32:57;;;;;;;12.10;6.90;;;;;;;7.88;100.00;98995.41;101706;1303;73294;-65
2022/12/31 10:35:52;;;;;;;11.20;6.10;;;;;;;7.88;100.00;98992.23;102059;1305;68816;-66
2022/12/31 10:39:01;;;;;;;11.90;6.40;;;;;;;7.89;100.00;98990.94;101850;1309;73563;-68
2022/12/31 10:42:24;;;;;;;12.80;6.50;;;;;;;7.88;100.00;98981.31;101911;1304;59712;-66
2022/12/31 10:45:51;;;;;;;13.40;6.50;;;;;;;7.87;100.00;98971.44;101899;1308;59607;-66
2022/12/31 10:49:20;;;;;;;12.10;6.40;;;;;;;7.87;100.00;98973.36;101835;1303;72942;-65
2022/12/31 10:52:29;;;;;;;12.00;6.90;;;;;;;7.87;100.00;98967.39;101711;1289;67833;-66
2022/12/31 10:55:29;;;;;;;10.80;6.10;;;;;;;7.85;100.00;98958.85;101861;1296;72507;-66
2022/12/31 10:58:23;;;;;;;13.30;6.70;;;;;;;7.81;100.00;98953.69;101960;1305;59875;-67
2022/12/31 11:01:31;;;;;;;12.40;6.40;;;;;;;7.82;100.00;98951.02;101878;1297;60387;-70
2022/12/31 11:04:35;;;;;;;11.80;5.70;;;;;;;7.81;100.00;98940.34;101785;1298;74085;-68
2022/12/31 11:07:53;;;;;;;11.70;5.90;;;;;;;7.81;100.00;98938.08;102185;1292;67896;-66
2022/12/31 11:10:59;;;;;;;13.10;7.00;;;;;;;7.82;100.00;98934.59;102488;1299;73705;-65
2022/12/31 11:14:29;;;;;;;9.90;5.10;;;;;;;7.83;100.00;98934.99;102413;1299;59657;-65
2022/12/31 11:18:00;;;;;;;10.80;5.50;;;;;;;7.86;100.00;98930.91;102562;1298;60341;-67
2022/12/31 11:20:55;;;;;;;12.10;5.70;;;;;;;7.88;100.00;98921.25;102342;1292;73901;-66
2022/12/31 11:24:02;;;;;;;10.90;6.00;;;;;;;7.87;100.00;98903.64;102351;1298;68086;-67
2022/12/31 11:27:07;;;;;;;11.10;5.90;;;;;;;7.87;100.00;98899.20;102295;1299;73730;-66
2022/12/31 11:30:55;;;;;;;12.40;6.20;;;;;;;7.89;100.00;98895.57;102410;1292;59549;-65
2022/12/31 11:34:09;;;;;;;11.80;5.70;;;;;;;7.87;100.00;98884.02;102447;1304;60370;-66
2022/12/31 11:37:29;;;;;;;9.40;4.80;;;;;;;7.90;100.00;98890.33;101983;1304;72112;-66
2022/12/31 11:40:52;;;;;;;10.80;5.80;;;;;;;7.91;100.00;98892.13;101866;1304;67548;-67
2022/12/31 11:44:03;;;;;;;10.90;5.00;;;;;;;7.92;100.00;98878.69;101771;1297;73196;-67
2022/12/31 11:47:22;;;;;;;11.40;5.90;;;;;;;7.93;100.00;98874.31;101951;1304;60612;-66
2022/12/31 11:50:18;;;;;;;10.10;5.00;;;;;;;7.95;100.00;98859.68;101977;1304;60295;-68
2022/12/31 11:53:36;;;;;;;10.80;9.10;;;;;;;7.96;100.00;98844.92;101689;1303;73637;-68
2022/12/31 11:56:32;;;;;;;10.50;5.80;;;;;;;7.96;100.00;98847.28;101948;1304;67817;-66
2022/12/31 11:59:21;;;;;;;10.90;4.70;;;;;;;7.97;100.00;98852.99;102041;1304;73091;-66
2022/12/31 12:02:33;;;;;;;10.50;5.10;;;;;;;7.98;100.00;98837.53;101777;1304;59890;-67
2022/12/31 12:05:25;;;;;;;9.70;5.50;;;;;;;8.02;100.00;98840.86;101880;1295;60651;-67
2022/12/31 12:08:15;;;;;;;11.60;5.40;;;;;;;8.02;100.00;98832.97;101940;1303;74620;-67
2022/12/31 12:11:20;;;;;;;9.90;5.40;;;;;;;8.09;100.00;98836.08;102362;1295;67810;-68
2022/12/31 12:14:32;;;;;;;11.00;5.40;;;;;;;8.14;100.00;98838.48;102428;1299;72518;-67
2022/12/31 12:17:33;;;;;;;10.40;5.10;;;;;;;8.19;100.00;98842.10;102425;1295;59671;-67
2022/12/31 12:20:31;;;;;;;10.30;4.80;;;;;;;8.23;100.00;98834.84;102123;1299;61172;-66
2022/12/31 12:23:26;;;;;;;10.80;4.80;;;;;;;8.27;100.00;98837.66;102150;1293;74121;-66
2022/12/31 12:26:37;;;;;;;9.90;5.40;;;;;;;8.28;100.00;98837.22;102456;1297;67583;-69
2022/12/31 12:29:33;;;;;;;10.00;4.70;;;;;;;8.31;100.00;98825.83;102470;1289;73641;-67
2022/12/31 12:32:26;;;;;;;11.20;4.10;;;;;;;8.32;100.00;98831.55;102342;1295;59695;-68
2022/12/31 12:35:23;;;;;;;9.50;4.40;;;;;;;8.33;100.00;98827.61;102297;1297;61108;-66
2022/12/31 12:38:19;;;;;;;9.50;4.30;;;;;;;8.35;100.00;98834.35;102183;1297;72019;-65
2022/12/31 12:41:25;;;;;;;9.50;4.00;;;;;;;8.38;100.00;98835.11;102361;1299;68134;-66
2022/12/31 12:44:15;;;;;;;9.10;3.60;;;;;;;8.40;100.00;98839.55;102640;1299;73479;-66
2022/12/31 12:47:07;;;;;;;8.30;3.70;;;;;;;8.42;100.00;98833.38;104483;1291;59440;-67
2022/12/31 12:49:57;;;;;;;9.40;3.60;;;;;;;8.43;100.00;98837.84;103188;1291;61091;-69
2022/12/31 12:52:51;;;;;;;8.80;4.20;;;;;;;8.48;100.00;98840.86;102462;1289;71872;-67
2022/12/31 12:56:36;;;;;;;8.10;3.70;;;;;;;8.52;100.00;98839.41;102605;1297;67974;-65
2022/12/31 12:59:52;;;;;;;8.70;3.60;;;;;;;8.56;100.00;98839.83;102487;1289;73159;-69
2022/12/31 13:03:05;;;;;;;8.60;3.70;;;;;;;8.57;100.00;98841.65;102394;1289;59682;-67
2022/12/31 13:06:28;;;;;;;9.50;3.90;;;;;;;8.59;100.00;98830.70;102187;1297;60373;-66
2022/12/31 13:10:12;;;;;;;7.80;3.30;;;;;;;8.61;100.00;98834.05;102390;1297;73748;-68
2022/12/31 13:13:58;;;;;;;10.50;4.30;;;;;;;8.61;100.00;98834.75;102343;1295;68297;-67
2022/12/31 13:16:59;;;;;;;9.50;3.90;;;;;;;8.59;100.00;98838.63;102285;1294;73594;-68
2022/12/31 13:20:09;;;;;;;9.30;4.40;;;;;;;8.61;100.00;98833.45;101984;1300;59930;-66
2022/12/31 13:23:18;;;;;;;9.80;4.20;;;;;;;8.62;100.00;98829.30;101903;1295;60359;-67
2022/12/31 13:26:27;;;;;;;11.80;4.60;;;;;;;8.63;100.00;98831.02;102063;1301;73492;-69
2022/12/31 13:29:22;;;;;;;9.70;4.20;;;;;;;8.65;100.00;98823.36;102134;1301;66603;-66
2022/12/31 13:32:31;;;;;;;10.60;4.20;;;;;;;8.69;100.00;98830.65;102031;1302;73663;-67
2022/12/31 13:36:04;;;;;;;10.10;4.60;;;;;;;8.73;100.00;98829.63;101306;1294;1003100;-65
2022/12/31 13:39:11;;;;;;;9.20;4.30;;;;;;;8.75;100.00;98821.26;102169;1294;61443;-67
2022/12/31 13:42:19;;;;;;;10.20;4.70;;;;;;;8.79;100.00;98820.54;102073;1301;74012;-65
2022/12/31 13:45:23;;;;;;;10.30;4.50;;;;;;;8.83;100.00;98821.63;102202;1300;67835;-68
2022/12/31 13:48:18;;;;;;;9.60;4.30;;;;;;;8.88;100.00;98825.04;102027;1289;73694;-66
2022/12/31 13:51:21;;;;;;;10.60;4.50;;;;;;;8.92;100.00;98827.73;102174;1298;59651;-67
2022/12/31 13:54:29;;;;;;;10.00;4.80;;;;;;;8.96;100.00;98831.06;102494;1297;59628;-70
2022/12/31 13:57:47;;;;;;;10.40;5.00;;;;;;;9.00;100.00;98828.23;102509;1295;72989;-66
2022/12/31 14:00:57;;;;;;;9.60;5.00;;;;;;;9.04;100.00;98830.65;102538;1299;68881;-67
2022/12/31 14:04:14;;;;;;;11.20;5.50;;;;;;;9.08;100.00;98826.12;102460;1291;73976;-67
2022/12/31 14:07:11;;;;;;;10.20;5.10;;;;;;;9.12;100.00;98826.27;102385;1291;59668;-66
2022/12/31 14:09:59;;;;;;;9.40;4.70;;;;;;;9.16;100.00;98834.13;102245;1291;60861;-65